[2025-03-15 00:00:00, 2025-03-15 23:59:59] previous next
| time | temperature | air pressure | humidity | solar radiation | wind speed |
|---|---|---|---|---|---|
| 2025-03-15 08:30:21 | 1.7 | 1009.0 | 96.0 | 67.0 | 2.7 |
| 2025-03-15 08:50:20 | 2.2 | 1009.0 | 94.0 | 72.1 | 4.3 |
| 2025-03-15 09:10:18 | 3.0 | 1009.0 | 91.0 | 108.5 | 3.5 |
| 2025-03-15 09:30:20 | 3.4 | 1009.0 | 88.0 | 100.0 | 6.2 |
| 2025-03-15 09:50:19 | 4.1 | 1009.3 | 86.0 | 118.7 | 6.0 |
| 2025-03-15 10:10:19 | 4.3 | 1009.3 | 85.0 | 136.0 | 4.1 |
| 2025-03-15 10:30:17 | 5.5 | 1009.3 | 82.0 | 195.5 | 3.2 |
| 2025-03-15 10:50:20 | 5.3 | 1009.3 | 81.0 | 212.9 | 2.5 |
| 2025-03-15 11:10:19 | 5.6 | 1009.3 | 79.0 | 267.0 | 3.2 |
| 2025-03-15 11:30:20 | 6.3 | 1009.3 | 78.0 | 300.4 | 3.4 |
| 2025-03-15 11:50:18 | 6.4 | 1009.3 | 75.0 | 233.6 | 3.4 |
| 2025-03-15 12:10:18 | 6.2 | 1009.3 | 74.0 | 128.2 | 1.5 |
| 2025-03-15 12:30:18 | 7.0 | 1009.0 | 73.0 | 188.1 | 3.5 |
| 2025-03-15 12:50:18 | 7.2 | 1008.7 | 69.0 | 290.9 | 3.5 |
| 2025-03-15 13:10:18 | 7.0 | 1008.7 | 68.0 | 288.0 | 6.4 |
| 2025-03-15 13:30:18 | 7.7 | 1008.3 | 69.0 | 336.4 | 4.1 |
| 2025-03-15 13:50:20 | 7.6 | 1008.3 | 67.0 | 279.3 | 4.5 |
| 2025-03-15 14:10:18 | 7.8 | 1008.3 | 65.0 | 95.4 | 6.0 |
| 2025-03-15 14:31:05 | 8.2 | 1008.3 | 63.0 | 256.3 | 3.6 |
| 2025-03-15 14:51:04 | 7.9 | 1008.3 | 64.0 | 263.2 | 4.5 |
| 2025-03-15 15:11:23 | 7.3 | 1008.0 | 68.0 | 219.4 | 5.6 |
| 2025-03-15 15:31:24 | 7.9 | 1008.3 | 67.0 | 223.3 | 5.5 |
| 2025-03-15 16:01:11 | 7.0 | 1008.3 | 67.0 | 126.4 | 4.6 |
CSV export: /station/IWELLEN5/data?period=20250315T000000/20250315T235959&format=csv&tz=GMT